Time;durP1;ratioP1;P1;durP2;ratioP2;P2;SDS_P1;SDS_P2;PMS_P1;PMS_P2;Temp;Humidity;BMP_temperature;BMP_pressure;BME280_temperature;BME280_humidity;BME280_pressure;Samples;Min_cycle;Max_cycle;Signal;HPM_P1;HPM_P2
2022/11/26 00:00:24;;;;;;;28.70;6.20;;;8.00;99.90;;;;;;5086316;28;20226;-77
2022/11/26 00:02:50;;;;;;;16.10;5.20;;;8.00;99.90;;;;;;5068704;28;20701;-77
2022/11/26 00:05:16;;;;;;;21.92;6.00;;;8.00;99.90;;;;;;5079031;28;20192;-76
2022/11/26 00:07:47;;;;;;;22.63;5.93;;;8.00;99.90;;;;;;5062499;28;20197;-77
2022/11/26 00:10:18;;;;;;;24.13;6.03;;;7.90;99.90;;;;;;5066109;28;20316;-78
2022/11/26 00:12:44;;;;;;;22.98;5.93;;;8.00;99.90;;;;;;5060596;28;20178;-76
2022/11/26 00:15:19;;;;;;;29.88;5.72;;;7.90;99.90;;;;;;5072637;28;20665;-76
2022/11/26 00:17:45;;;;;;;31.85;6.00;;;7.90;99.90;;;;;;5071767;28;20205;-77
2022/11/26 00:20:11;;;;;;;24.88;6.40;;;7.90;99.90;;;;;;5073495;28;20187;-76
2022/11/26 00:22:50;;;;;;;18.55;6.05;;;7.90;99.90;;;;;;5061452;28;20178;-77
2022/11/26 00:25:25;;;;;;;24.55;6.78;;;7.90;99.90;;;;;;5059341;28;20266;-77
2022/11/26 00:27:53;;;;;;;20.40;5.82;;;7.80;99.90;;;;;;5056314;28;20187;-77
2022/11/26 00:30:25;;;;;;;21.00;6.53;;;7.90;99.90;;;;;;5056483;28;20183;-76
2022/11/26 00:32:52;;;;;;;27.45;6.43;;;7.80;99.90;;;;;;5062656;28;20167;-81
2022/11/26 00:35:18;;;;;;;23.25;6.85;;;7.80;99.90;;;;;;5062243;28;20190;-76
2022/11/26 00:37:52;;;;;;;20.38;6.53;;;7.80;99.90;;;;;;5070345;28;20541;-76
2022/11/26 00:40:29;;;;;;;24.63;6.60;;;7.70;99.90;;;;;;5074752;28;20174;-77
2022/11/26 00:42:55;;;;;;;20.25;6.18;;;7.80;99.90;;;;;;5065967;28;20178;-77
2022/11/26 00:45:24;;;;;;;23.33;6.18;;;7.80;99.90;;;;;;5058595;28;20272;-77
2022/11/26 00:47:51;;;;;;;21.33;6.00;;;7.80;99.90;;;;;;5061137;28;20183;-78
2022/11/26 00:50:20;;;;;;;16.25;6.43;;;7.70;99.90;;;;;;5060241;28;20202;-76
2022/11/26 00:52:48;;;;;;;28.15;7.13;;;7.70;99.90;;;;;;5064944;28;20172;-77
2022/11/26 00:55:38;;;;;;;28.05;7.72;;;7.70;99.90;;;;;;5061064;28;20175;-78
2022/11/26 00:58:06;;;;;;;20.33;7.55;;;7.70;99.90;;;;;;5071684;28;20195;-76
2022/11/26 01:00:34;;;;;;;25.10;6.88;;;7.70;99.90;;;;;;5067290;28;20179;-79
2022/11/26 01:03:01;;;;;;;20.55;6.85;;;7.70;99.90;;;;;;5065136;28;20222;-77
2022/11/26 01:05:29;;;;;;;22.60;6.85;;;7.70;99.90;;;;;;5064020;28;20494;-76
2022/11/26 01:07:59;;;;;;;26.38;7.32;;;7.60;99.90;;;;;;5060514;28;20191;-76
2022/11/26 01:10:27;;;;;;;20.83;6.88;;;7.60;99.90;;;;;;5059937;28;20195;-77
2022/11/26 01:12:54;;;;;;;17.75;6.40;;;7.60;99.90;;;;;;5062023;28;20191;-78
2022/11/26 01:15:22;;;;;;;28.30;7.25;;;7.70;99.90;;;;;;5058647;28;21041;-78
2022/11/26 01:17:48;;;;;;;19.75;6.40;;;7.60;99.90;;;;;;5057774;28;20206;-79
2022/11/26 01:20:28;;;;;;;25.95;7.38;;;7.60;99.90;;;;;;5073252;28;20186;-76
2022/11/26 01:22:56;;;;;;;23.00;7.07;;;7.60;99.90;;;;;;5060702;28;20170;-77
2022/11/26 01:25:24;;;;;;;18.10;6.85;;;7.60;99.90;;;;;;5058422;28;20186;-77
2022/11/26 01:27:50;;;;;;;29.23;7.30;;;7.50;99.90;;;;;;5063110;28;20259;-75
2022/11/26 01:30:25;;;;;;;24.42;6.50;;;7.50;99.90;;;;;;5057320;28;20210;-76
2022/11/26 01:32:52;;;;;;;27.17;7.30;;;7.50;99.90;;;;;;5062224;28;20220;-77
2022/11/26 01:35:19;;;;;;;21.85;6.35;;;7.50;99.90;;;;;;5055176;28;20685;-76
2022/11/26 01:37:45;;;;;;;28.00;6.97;;;7.50;99.90;;;;;;5061363;28;20221;-75
2022/11/26 01:40:20;;;;;;;20.63;6.88;;;7.50;99.90;;;;;;5073260;28;20202;-76
2022/11/26 01:42:50;;;;;;;29.02;7.25;;;7.40;99.90;;;;;;5070113;28;20171;-76
2022/11/26 01:45:19;;;;;;;20.75;6.47;;;7.40;99.90;;;;;;5066968;28;20682;-75
2022/11/26 01:47:48;;;;;;;27.52;7.88;;;7.40;99.90;;;;;;5063659;28;21235;-77
2022/11/26 01:50:31;;;;;;;29.25;7.75;;;7.40;99.90;;;;;;5061479;28;20240;-82
2022/11/26 01:53:02;;;;;;;25.15;7.07;;;7.40;99.90;;;;;;5056174;28;20186;-76
2022/11/26 01:55:40;;;;;;;25.50;6.95;;;7.40;99.90;;;;;;5057936;28;20790;-76
2022/11/26 01:58:10;;;;;;;27.10;7.55;;;7.40;99.90;;;;;;5056307;28;20194;-77
2022/11/26 02:00:35;;;;;;;26.02;7.10;;;7.30;99.90;;;;;;5069184;28;20186;-77
2022/11/26 02:03:03;;;;;;;21.23;7.38;;;7.30;99.90;;;;;;5059016;28;20222;-76
2022/11/26 02:05:35;;;;;;;34.72;7.40;;;7.30;99.90;;;;;;5067857;28;20175;-76
2022/11/26 02:08:02;;;;;;;28.08;7.13;;;7.30;99.90;;;;;;5059827;28;20170;-80
2022/11/26 02:10:28;;;;;;;28.23;7.70;;;7.30;99.90;;;;;;5064941;28;20186;-75
2022/11/26 02:12:54;;;;;;;26.75;8.00;;;7.30;99.90;;;;;;5056663;28;20186;-75
2022/11/26 02:15:21;;;;;;;28.52;7.90;;;7.30;99.90;;;;;;5067989;28;20209;-76
2022/11/26 02:17:54;;;;;;;24.05;7.80;;;7.30;99.90;;;;;;5064091;28;20278;-81
2022/11/26 02:20:44;;;;;;;32.33;8.40;;;7.30;99.90;;;;;;5057155;28;20174;-75
2022/11/26 02:23:29;;;;;;;24.73;7.80;;;7.30;99.90;;;;;;5057235;28;20185;-76
2022/11/26 02:26:14;;;;;;;32.72;7.30;;;7.20;99.90;;;;;;5061098;28;22841;-78
2022/11/26 02:29:17;;;;;;;24.35;7.75;;;7.20;99.90;;;;;;5059249;28;20167;-80
2022/11/26 02:32:04;;;;;;;25.23;8.02;;;7.20;99.90;;;;;;5058353;28;20178;-75
2022/11/26 02:34:37;;;;;;;25.88;7.75;;;7.20;99.90;;;;;;5061035;28;20260;-76
2022/11/26 02:37:20;;;;;;;28.27;7.90;;;7.20;99.90;;;;;;5067713;28;20273;-76
2022/11/26 02:39:46;;;;;;;24.42;7.35;;;7.20;99.90;;;;;;5058988;28;20179;-79
2022/11/26 02:42:28;;;;;;;28.42;7.82;;;7.20;99.90;;;;;;5057482;28;20206;-77
2022/11/26 02:44:57;;;;;;;29.23;8.00;;;7.10;99.90;;;;;;5063938;28;20207;-76
2022/11/26 02:47:26;;;;;;;26.35;7.90;;;7.20;99.90;;;;;;5068022;28;20186;-76
2022/11/26 02:49:53;;;;;;;25.83;7.88;;;7.20;99.90;;;;;;5066968;28;20186;-82
2022/11/26 02:52:20;;;;;;;23.58;8.23;;;7.20;99.90;;;;;;5058125;28;20183;-77
2022/11/26 02:54:48;;;;;;;25.38;7.97;;;7.10;99.90;;;;;;5057890;28;20679;-76
2022/11/26 02:57:17;;;;;;;25.08;7.97;;;7.10;99.90;;;;;;5067833;28;20203;-80
2022/11/26 02:59:43;;;;;;;23.52;8.40;;;7.10;99.90;;;;;;5059795;28;20186;-78
2022/11/26 03:02:23;;;;;;;21.42;7.68;;;7.10;99.90;;;;;;5058219;28;20236;-78
2022/11/26 03:04:52;;;;;;;30.10;8.52;;;7.10;99.90;;;;;;5068687;28;20265;-75
2022/11/26 03:07:19;;;;;;;27.33;9.02;;;7.10;99.90;;;;;;5066591;28;20218;-76
2022/11/26 03:09:55;;;;;;;33.53;8.27;;;7.10;99.90;;;;;;5069310;28;20202;-76
2022/11/26 03:12:21;;;;;;;30.50;8.07;;;7.10;99.90;;;;;;5063363;28;20208;-75
2022/11/26 03:14:47;;;;;;;24.77;8.27;;;7.10;99.90;;;;;;5057007;28;20197;-76
2022/11/26 03:17:13;;;;;;;29.33;8.30;;;7.10;99.90;;;;;;5054454;28;20214;-76
2022/11/26 03:19:39;;;;;;;24.45;8.50;;;7.10;99.90;;;;;;5065720;28;20194;-75
2022/11/26 03:22:05;;;;;;;30.70;8.70;;;7.00;99.90;;;;;;5060255;28;20297;-78
2022/11/26 03:24:31;;;;;;;26.15;8.43;;;7.00;99.90;;;;;;5059293;28;20187;-76
2022/11/26 03:26:57;;;;;;;24.40;8.68;;;7.00;99.90;;;;;;5062537;28;20183;-77
2022/11/26 03:29:22;;;;;;;23.92;8.00;;;7.00;99.90;;;;;;5065775;28;20202;-79
2022/11/26 03:31:48;;;;;;;35.22;8.25;;;7.00;99.90;;;;;;5055911;28;20630;-77
2022/11/26 03:34:14;;;;;;;26.75;8.25;;;7.00;99.90;;;;;;5063390;28;20175;-76
2022/11/26 03:36:39;;;;;;;34.20;8.68;;;7.00;99.90;;;;;;5058962;28;20206;-77
2022/11/26 03:39:05;;;;;;;23.75;7.55;;;7.00;99.90;;;;;;5071410;28;20186;-75
2022/11/26 03:41:31;;;;;;;23.50;7.95;;;7.00;99.90;;;;;;5081480;28;20320;-77
2022/11/26 03:43:57;;;;;;;24.35;7.18;;;7.00;99.90;;;;;;5068485;28;20181;-75
2022/11/26 03:46:23;;;;;;;26.77;8.02;;;7.00;99.90;;;;;;5062849;28;20182;-75
2022/11/26 03:48:48;;;;;;;26.75;8.60;;;7.00;99.90;;;;;;5070380;28;20186;-75
2022/11/26 03:51:14;;;;;;;28.58;9.02;;;6.90;99.90;;;;;;5066621;28;20187;-79
2022/11/26 03:53:40;;;;;;;22.75;8.70;;;7.00;99.90;;;;;;5059078;28;20270;-78
2022/11/26 03:56:06;;;;;;;38.35;8.95;;;6.90;99.90;;;;;;5061221;28;20182;-76
2022/11/26 03:58:33;;;;;;;25.60;8.95;;;7.00;99.90;;;;;;5058464;28;20969;-77
2022/11/26 04:00:59;;;;;;;29.73;8.65;;;7.00;99.90;;;;;;5064674;28;20193;-76
2022/11/26 04:03:25;;;;;;;33.75;9.02;;;6.90;99.90;;;;;;5057718;28;20579;-76
2022/11/26 04:05:50;;;;;;;27.33;8.85;;;6.90;99.90;;;;;;5077104;28;20179;-76
2022/11/26 04:08:16;;;;;;;27.48;8.75;;;6.90;99.90;;;;;;5062306;28;20709;-78
2022/11/26 04:10:42;;;;;;;29.77;8.98;;;6.90;99.90;;;;;;5061164;28;20193;-76
2022/11/26 04:13:08;;;;;;;22.60;8.90;;;6.90;99.90;;;;;;5069396;28;20183;-75
2022/11/26 04:15:34;;;;;;;31.35;9.27;;;6.90;99.90;;;;;;5073474;28;20622;-81
2022/11/26 04:18:00;;;;;;;26.02;9.02;;;6.90;99.90;;;;;;5061336;28;20202;-79
2022/11/26 04:20:25;;;;;;;29.58;9.20;;;6.90;99.90;;;;;;5062121;28;20194;-76
2022/11/26 04:22:51;;;;;;;25.33;9.23;;;6.80;99.90;;;;;;5057668;28;20183;-76
2022/11/26 04:25:17;;;;;;;23.55;9.02;;;6.90;99.90;;;;;;5059925;28;20190;-76
2022/11/26 04:27:42;;;;;;;30.77;9.27;;;6.90;99.90;;;;;;5060807;28;20269;-76
2022/11/26 04:30:09;;;;;;;26.77;9.43;;;6.90;99.90;;;;;;5078314;28;20669;-76
2022/11/26 04:32:38;;;;;;;29.38;9.77;;;6.80;99.90;;;;;;5068619;28;20277;-80
2022/11/26 04:35:06;;;;;;;29.50;9.68;;;6.80;99.90;;;;;;5059303;28;20229;-75
2022/11/26 04:37:31;;;;;;;30.05;9.80;;;6.80;99.90;;;;;;5068658;28;20624;-75
2022/11/26 04:39:57;;;;;;;28.58;9.20;;;6.80;99.90;;;;;;5073173;28;20233;-75
2022/11/26 04:42:23;;;;;;;32.65;8.98;;;6.80;99.90;;;;;;5071942;28;20633;-75
2022/11/26 04:44:48;;;;;;;25.17;9.82;;;6.80;99.90;;;;;;5065100;28;20187;-75
2022/11/26 04:47:14;;;;;;;21.35;9.00;;;6.70;99.90;;;;;;5060505;28;20556;-75
2022/11/26 04:49:40;;;;;;;32.15;10.30;;;6.70;99.90;;;;;;5071663;28;20178;-75
2022/11/26 04:52:06;;;;;;;25.23;9.52;;;6.70;99.90;;;;;;5048500;28;20619;-76
2022/11/26 04:54:31;;;;;;;27.38;9.27;;;6.70;99.90;;;;;;5071532;28;20265;-78
2022/11/26 04:56:57;;;;;;;28.38;8.73;;;6.80;99.90;;;;;;5065188;28;20508;-77
2022/11/26 04:59:22;;;;;;;21.50;8.45;;;6.70;99.90;;;;;;5064240;28;20198;-75
2022/11/26 05:01:48;;;;;;;32.28;9.43;;;6.70;99.90;;;;;;5069284;28;20179;-75
2022/11/26 05:04:14;;;;;;;31.73;9.70;;;6.70;99.90;;;;;;5055513;28;20193;-79
2022/11/26 05:06:39;;;;;;;30.95;9.18;;;6.70;99.90;;;;;;5067875;28;20179;-75
2022/11/26 05:09:05;;;;;;;31.40;10.30;;;6.70;99.90;;;;;;5072981;28;20186;-75
2022/11/26 05:11:31;;;;;;;23.73;9.00;;;6.70;99.90;;;;;;5069133;28;20545;-76
2022/11/26 05:13:57;;;;;;;27.30;8.93;;;6.70;99.90;;;;;;5062285;28;20182;-78
2022/11/26 05:16:22;;;;;;;24.65;9.48;;;6.70;99.90;;;;;;5058619;28;20333;-77
2022/11/26 05:18:48;;;;;;;29.77;9.93;;;6.70;99.90;;;;;;5065788;28;22434;-75
2022/11/26 05:21:13;;;;;;;29.27;10.23;;;6.70;99.90;;;;;;5057121;28;20376;-76
2022/11/26 05:23:39;;;;;;;28.20;9.60;;;6.60;99.90;;;;;;5058968;28;20183;-79
2022/11/26 05:26:05;;;;;;;28.08;9.85;;;6.60;99.90;;;;;;5059939;28;20273;-76
2022/11/26 05:28:31;;;;;;;25.63;9.43;;;6.60;99.90;;;;;;5071194;28;20187;-75
2022/11/26 05:30:58;;;;;;;28.98;10.00;;;6.60;99.90;;;;;;5064830;28;20337;-77
2022/11/26 05:33:24;;;;;;;29.45;10.02;;;6.60;99.90;;;;;;5062944;28;20201;-76
2022/11/26 05:35:50;;;;;;;30.45;10.25;;;6.60;99.90;;;;;;5057169;28;20190;-76
2022/11/26 05:38:16;;;;;;;35.35;10.02;;;6.60;99.90;;;;;;5067726;28;20229;-76
2022/11/26 05:40:41;;;;;;;25.63;9.73;;;6.60;99.90;;;;;;5071324;28;20266;-76
2022/11/26 05:43:07;;;;;;;31.63;10.68;;;6.60;99.90;;;;;;5069469;28;20261;-76
2022/11/26 05:45:33;;;;;;;22.80;9.65;;;6.60;99.90;;;;;;5062168;28;20191;-80
2022/11/26 05:47:59;;;;;;;26.10;10.38;;;6.60;99.90;;;;;;5065750;28;20225;-84
2022/11/26 05:50:24;;;;;;;33.88;10.93;;;6.60;99.90;;;;;;5070454;28;20196;-76
2022/11/26 05:52:52;;;;;;;31.88;10.45;;;6.60;99.90;;;;;;5056080;28;20198;-81
2022/11/26 05:55:18;;;;;;;34.35;10.60;;;6.60;99.90;;;;;;5058481;28;21103;-75
2022/11/26 05:57:43;;;;;;;34.35;10.60;;;6.60;99.90;;;;;;5055448;28;20214;-77
2022/11/26 06:00:10;;;;;;;28.52;10.77;;;6.60;99.90;;;;;;5086963;28;20191;-77
2022/11/26 06:02:39;;;;;;;23.88;10.25;;;6.60;99.90;;;;;;5059591;28;20226;-76
2022/11/26 06:05:05;;;;;;;29.30;10.73;;;6.60;99.90;;;;;;5061891;28;20186;-76
2022/11/26 06:07:31;;;;;;;35.08;11.18;;;6.60;99.90;;;;;;5058367;28;20534;-76
2022/11/26 06:09:57;;;;;;;29.58;11.13;;;6.60;99.90;;;;;;5056980;28;20171;-76
2022/11/26 06:12:23;;;;;;;32.10;11.00;;;6.60;99.90;;;;;;5066025;28;20631;-75
2022/11/26 06:14:49;;;;;;;25.67;10.40;;;6.60;99.90;;;;;;5071237;28;20311;-75
2022/11/26 06:17:14;;;;;;;31.70;10.93;;;6.60;99.90;;;;;;5058447;28;20435;-77
2022/11/26 06:19:40;;;;;;;30.88;12.30;;;6.50;99.90;;;;;;5067649;28;20575;-75
2022/11/26 06:22:06;;;;;;;26.95;10.73;;;6.60;99.90;;;;;;5060732;28;20194;-83
2022/11/26 06:24:32;;;;;;;32.17;11.20;;;6.50;99.90;;;;;;5068629;28;20186;-80
2022/11/26 06:26:57;;;;;;;26.40;11.45;;;6.50;99.90;;;;;;5058680;28;20209;-77
2022/11/26 06:29:23;;;;;;;33.83;11.45;;;6.50;99.90;;;;;;5074136;28;20186;-76
2022/11/26 06:31:49;;;;;;;28.50;12.63;;;6.50;99.90;;;;;;5068850;28;20546;-76
2022/11/26 06:34:15;;;;;;;29.77;11.80;;;6.40;99.90;;;;;;5066791;28;20583;-76
2022/11/26 06:36:41;;;;;;;30.05;11.38;;;6.50;99.90;;;;;;5072028;28;20245;-77
2022/11/26 06:39:08;;;;;;;36.53;11.98;;;6.50;99.90;;;;;;5070054;28;20222;-77
2022/11/26 06:41:34;;;;;;;30.25;11.40;;;6.40;99.90;;;;;;5072009;28;20181;-80
2022/11/26 06:44:00;;;;;;;26.65;11.30;;;6.40;99.90;;;;;;5068933;28;20265;-76
2022/11/26 06:46:26;;;;;;;40.60;11.23;;;6.40;99.90;;;;;;5086336;28;20281;-74
2022/11/26 06:48:51;;;;;;;23.00;11.25;;;6.40;99.90;;;;;;5069126;28;20228;-75
2022/11/26 06:51:20;;;;;;;30.50;12.02;;;6.40;99.90;;;;;;5069760;28;20186;-75
2022/11/26 06:53:47;;;;;;;28.15;12.02;;;6.40;99.90;;;;;;5059785;28;20256;-74
2022/11/26 06:56:15;;;;;;;36.92;11.93;;;6.40;99.90;;;;;;5054333;28;20209;-75
2022/11/26 06:58:41;;;;;;;30.80;11.32;;;6.40;99.90;;;;;;5063790;28;20195;-75
2022/11/26 07:01:14;;;;;;;31.83;11.77;;;6.40;99.90;;;;;;5072388;28;20171;-75
2022/11/26 07:03:40;;;;;;;34.08;12.07;;;6.40;99.90;;;;;;5063770;28;20808;-75
2022/11/26 07:06:25;;;;;;;24.00;11.57;;;6.30;99.90;;;;;;5051736;28;20635;-75
2022/11/26 07:08:52;;;;;;;28.70;12.18;;;6.40;99.90;;;;;;5064430;28;20229;-75
2022/11/26 07:11:19;;;;;;;28.63;11.98;;;6.40;99.90;;;;;;5073773;28;20183;-75
2022/11/26 07:13:45;;;;;;;30.25;11.85;;;6.30;99.90;;;;;;5069681;28;20189;-76
2022/11/26 07:16:11;;;;;;;33.72;13.07;;;6.30;99.90;;;;;;5059528;28;20182;-75
2022/11/26 07:18:37;;;;;;;41.70;12.50;;;6.40;99.90;;;;;;5073519;28;20182;-75
2022/11/26 07:21:08;;;;;;;32.72;12.10;;;6.40;99.90;;;;;;5073446;28;20688;-75
2022/11/26 07:23:34;;;;;;;38.50;13.55;;;6.40;99.90;;;;;;5071900;28;20552;-76
2022/11/26 07:26:01;;;;;;;36.60;12.73;;;6.40;99.90;;;;;;5062882;28;20175;-75
2022/11/26 07:28:28;;;;;;;33.85;12.15;;;6.40;99.90;;;;;;5073143;28;20174;-76
2022/11/26 07:30:54;;;;;;;31.77;12.40;;;6.40;99.90;;;;;;5071942;28;20208;-78
2022/11/26 07:33:20;;;;;;;36.42;13.07;;;6.40;99.90;;;;;;5070715;28;20217;-75
2022/11/26 07:35:45;;;;;;;27.30;12.35;;;6.40;99.90;;;;;;5075203;28;20186;-75
2022/11/26 07:38:11;;;;;;;37.53;13.43;;;6.40;99.90;;;;;;5062480;28;20619;-78
2022/11/26 07:40:37;;;;;;;28.05;13.07;;;6.40;99.90;;;;;;5061806;28;20195;-75
2022/11/26 07:43:02;;;;;;;33.75;12.88;;;6.50;99.90;;;;;;5062946;28;20656;-74
2022/11/26 07:45:29;;;;;;;30.35;12.68;;;6.50;99.90;;;;;;5074976;28;20182;-75
2022/11/26 07:47:54;;;;;;;38.58;14.02;;;6.50;99.90;;;;;;5071959;28;20648;-76
2022/11/26 07:50:20;;;;;;;32.88;13.18;;;6.60;99.90;;;;;;5062606;28;20187;-78
2022/11/26 07:52:46;;;;;;;33.67;12.52;;;6.60;99.90;;;;;;5061709;28;20270;-76
2022/11/26 07:55:11;;;;;;;34.55;13.30;;;6.70;99.90;;;;;;5073905;28;20649;-76
2022/11/26 07:57:37;;;;;;;33.08;12.85;;;6.70;99.90;;;;;;5072705;28;20206;-76
2022/11/26 08:00:04;;;;;;;33.10;12.38;;;6.80;99.90;;;;;;5063549;28;20185;-77
2022/11/26 08:02:37;;;;;;;35.58;12.88;;;6.80;99.90;;;;;;5083359;28;20261;-76
2022/11/26 08:05:04;;;;;;;33.80;13.15;;;6.80;99.90;;;;;;5037990;28;1095846;-75
2022/11/26 08:07:29;;;;;;;34.03;12.60;;;6.80;99.90;;;;;;5073525;28;20194;-76
2022/11/26 08:09:55;;;;;;;28.95;12.93;;;6.90;99.90;;;;;;5061417;28;20220;-78
2022/11/26 08:12:21;;;;;;;37.10;12.68;;;6.90;99.90;;;;;;5067815;28;20182;-76
2022/11/26 08:14:47;;;;;;;29.15;12.85;;;6.90;99.90;;;;;;5064906;28;20183;-76
2022/11/26 08:17:12;;;;;;;31.30;12.63;;;7.00;99.90;;;;;;5056173;28;20662;-76
2022/11/26 08:19:38;;;;;;;29.52;12.45;;;7.10;99.90;;;;;;5080104;28;20187;-77
2022/11/26 08:22:04;;;;;;;28.90;12.40;;;7.20;99.90;;;;;;5060757;28;20209;-77
2022/11/26 08:24:30;;;;;;;33.58;13.18;;;7.40;99.90;;;;;;5075195;28;20660;-80
2022/11/26 08:26:58;;;;;;;29.90;12.27;;;7.60;99.90;;;;;;5058877;28;20190;-76
2022/11/26 08:29:24;;;;;;;27.30;12.35;;;7.80;99.90;;;;;;5068933;28;20244;-75
2022/11/26 08:31:50;;;;;;;23.92;12.57;;;8.00;99.90;;;;;;5072956;28;20193;-75
2022/11/26 08:34:17;;;;;;;27.77;12.13;;;8.20;99.90;;;;;;5073031;28;20656;-77
2022/11/26 08:36:43;;;;;;;28.55;11.90;;;8.40;99.90;;;;;;5067377;28;20202;-75
2022/11/26 08:39:18;;;;;;;28.92;11.65;;;8.50;99.90;;;;;;5055664;28;20749;-76
2022/11/26 08:41:44;;;;;;;28.02;11.05;;;8.60;99.90;;;;;;5057816;28;20289;-75
2022/11/26 08:44:10;;;;;;;26.77;10.52;;;8.70;99.90;;;;;;5059870;28;20183;-76
2022/11/26 08:46:37;;;;;;;26.38;11.27;;;8.70;99.90;;;;;;5069621;28;20212;-75
2022/11/26 08:49:03;;;;;;;30.83;11.02;;;8.80;99.90;;;;;;5064234;28;20179;-75
2022/11/26 08:51:29;;;;;;;28.65;11.57;;;8.90;99.90;;;;;;5071312;28;20171;-74
2022/11/26 08:53:55;;;;;;;28.23;10.90;;;9.10;99.90;;;;;;5063911;28;20293;-78
2022/11/26 08:56:21;;;;;;;26.95;10.40;;;9.30;99.90;;;;;;5078146;28;20210;-75
2022/11/26 08:58:47;;;;;;;31.58;10.35;;;9.40;99.90;;;;;;5070188;28;20192;-75
2022/11/26 09:01:19;;;;;;;22.02;9.73;;;9.50;99.90;;;;;;5061228;28;20179;-78
2022/11/26 09:03:50;;;;;;;24.50;9.52;;;9.50;99.90;;;;;;5064380;28;20765;-75
2022/11/26 09:06:18;;;;;;;28.50;10.20;;;9.60;99.90;;;;;;5074079;28;20265;-75
2022/11/26 09:09:11;;;;;;;21.02;10.18;;;9.60;99.90;;;;;;5071483;28;20183;-75
2022/11/26 09:11:29;;;;;;;24.77;9.82;;;9.60;99.90;;;;;;5060126;28;20183;-75
2022/11/26 09:13:57;;;;;;;25.38;9.30;;;9.60;99.90;;;;;;5059974;28;20221;-78
2022/11/26 09:16:23;;;;;;;29.90;9.77;;;9.70;99.90;;;;;;5068137;28;20178;-76
2022/11/26 09:18:51;;;;;;;20.08;9.57;;;9.80;99.90;;;;;;5078028;28;20190;-79
2022/11/26 09:21:17;;;;;;;31.77;9.43;;;9.90;99.90;;;;;;5066029;28;20706;-76
2022/11/26 09:23:43;;;;;;;24.83;9.80;;;9.90;99.90;;;;;;5063164;28;20250;-77
2022/11/26 09:26:09;;;;;;;26.85;9.82;;;10.00;99.90;;;;;;5077438;28;20609;-76
2022/11/26 09:28:35;;;;;;;25.77;9.13;;;10.10;99.90;;;;;;5067380;28;20654;-75
2022/11/26 09:31:01;;;;;;;27.50;8.50;;;10.20;99.90;;;;;;5069416;28;20605;-78
2022/11/26 09:33:28;;;;;;;26.73;8.73;;;10.30;99.90;;;;;;5070966;28;20182;-75
2022/11/26 09:35:54;;;;;;;21.98;9.05;;;10.40;99.90;;;;;;5070523;28;20178;-75
2022/11/26 09:38:20;;;;;;;20.88;8.88;;;10.50;99.90;;;;;;5056570;28;20629;-76
2022/11/26 09:40:54;;;;;;;22.25;9.20;;;10.60;99.90;;;;;;5073805;28;20191;-74
2022/11/26 09:43:33;;;;;;;26.80;8.82;;;10.60;99.90;;;;;;5070766;28;20182;-75
2022/11/26 09:46:00;;;;;;;28.52;8.88;;;10.60;99.90;;;;;;5070183;28;20644;-75
2022/11/26 09:48:29;;;;;;;25.38;8.77;;;10.60;99.90;;;;;;5069931;28;20257;-76
2022/11/26 09:51:03;;;;;;;25.05;9.25;;;10.60;99.90;;;;;;5056836;28;20178;-77
2022/11/26 09:53:39;;;;;;;21.73;8.43;;;10.60;99.90;;;;;;5056682;28;20190;-75
2022/11/26 09:56:12;;;;;;;25.15;9.50;;;10.60;99.90;;;;;;5065792;28;20184;-75
2022/11/26 09:59:08;;;;;;;26.27;8.88;;;10.70;99.90;;;;;;5070099;28;20186;-75
2022/11/26 10:01:34;;;;;;;23.08;8.85;;;10.80;99.90;;;;;;5064120;28;20665;-76
2022/11/26 10:03:59;;;;;;;21.25;8.43;;;10.90;99.90;;;;;;5077206;28;20266;-77
2022/11/26 10:06:50;;;;;;;25.58;8.43;;;11.00;99.90;;;;;;5058166;28;20271;-75
2022/11/26 10:09:33;;;;;;;21.42;8.68;;;11.10;99.90;;;;;;5082948;28;20194;-75
2022/11/26 10:12:14;;;;;;;24.92;9.02;;;11.20;99.90;;;;;;5052334;28;20191;-76
2022/11/26 10:14:59;;;;;;;23.08;8.45;;;11.20;99.90;;;;;;5065047;28;20660;-75
2022/11/26 10:17:47;;;;;;;19.77;8.27;;;11.30;99.90;;;;;;5070744;28;20202;-76
2022/11/26 10:20:27;;;;;;;20.10;8.43;;;11.20;99.90;;;;;;5052332;28;20191;-75
2022/11/26 10:23:22;;;;;;;24.35;8.48;;;11.20;99.90;;;;;;5053226;28;20240;-79
2022/11/26 10:26:12;;;;;;;23.65;8.18;;;11.00;99.90;;;;;;5060131;28;20171;-76
2022/11/26 10:28:47;;;;;;;25.10;8.77;;;10.90;99.90;;;;;;5058740;28;20229;-78
2022/11/26 10:31:19;;;;;;;26.58;9.00;;;10.80;99.90;;;;;;5069954;28;20189;-75
2022/11/26 10:33:54;;;;;;;23.77;9.30;;;10.70;99.90;;;;;;5067845;28;20261;-74
2022/11/26 10:36:24;;;;;;;24.25;9.13;;;10.60;99.90;;;;;;5062245;28;20178;-77
2022/11/26 10:38:54;;;;;;;27.80;9.40;;;10.50;99.90;;;;;;5065253;28;20175;-77
2022/11/26 10:41:22;;;;;;;21.63;8.85;;;10.40;99.90;;;;;;5051233;28;20175;-76
2022/11/26 10:43:48;;;;;;;24.80;10.50;;;10.30;99.90;;;;;;5069574;28;20209;-75
2022/11/26 10:46:32;;;;;;;25.38;10.25;;;10.20;99.90;;;;;;5061619;28;20630;-76
2022/11/26 10:49:24;;;;;;;26.75;9.98;;;10.20;99.90;;;;;;5061921;28;20328;-75
2022/11/26 10:51:55;;;;;;;27.70;9.43;;;10.10;99.90;;;;;;5057947;28;20225;-75
2022/11/26 10:54:28;;;;;;;25.75;10.02;;;10.10;99.90;;;;;;5075279;28;20493;-79
2022/11/26 10:56:55;;;;;;;25.58;10.57;;;10.10;99.90;;;;;;5067754;28;20194;-77
2022/11/26 10:59:47;;;;;;;28.88;11.50;;;10.00;99.90;;;;;;5069958;28;20217;-75
2022/11/26 11:02:19;;;;;;;26.27;9.70;;;10.00;99.90;;;;;;5073137;28;22112;-75
2022/11/26 11:04:48;;;;;;;31.25;10.63;;;10.00;99.90;;;;;;5078962;28;20221;-75
2022/11/26 11:07:29;;;;;;;27.83;10.77;;;10.00;99.90;;;;;;5068784;28;20184;-75
2022/11/26 11:10:13;;;;;;;23.10;10.45;;;10.00;99.90;;;;;;5071929;28;20177;-76
2022/11/26 11:12:40;;;;;;;32.08;11.18;;;9.90;99.90;;;;;;5062600;28;20204;-77
2022/11/26 11:15:24;;;;;;;32.65;10.60;;;10.00;99.90;;;;;;5069691;28;20195;-76
2022/11/26 11:17:57;;;;;;;35.10;11.07;;;10.00;99.90;;;;;;5073685;28;20191;-74
2022/11/26 11:20:38;;;;;;;26.85;11.65;;;9.90;99.90;;;;;;5054717;28;20656;-75
2022/11/26 11:23:10;;;;;;;29.20;11.48;;;10.00;99.90;;;;;;5065038;28;20174;-75
2022/11/26 11:25:43;;;;;;;27.80;11.30;;;9.90;99.90;;;;;;5064429;28;20194;-75
2022/11/26 11:28:12;;;;;;;33.78;12.43;;;9.90;99.90;;;;;;5064035;28;20657;-75
2022/11/26 11:30:40;;;;;;;38.15;12.23;;;9.90;99.90;;;;;;5068003;28;20224;-75
2022/11/26 11:33:25;;;;;;;33.78;12.50;;;9.90;99.90;;;;;;5071050;28;20183;-76
2022/11/26 11:36:13;;;;;;;36.13;12.13;;;10.00;99.90;;;;;;5083508;28;20548;-76
2022/11/26 11:38:49;;;;;;;32.28;12.25;;;10.00;99.90;;;;;;5073619;28;20224;-75
2022/11/26 11:41:28;;;;;;;35.03;11.80;;;10.00;99.90;;;;;;5075591;28;20185;-75
2022/11/26 11:44:15;;;;;;;30.73;12.30;;;10.00;99.90;;;;;;5067642;28;20317;-75
2022/11/26 11:46:59;;;;;;;28.48;12.43;;;10.00;99.90;;;;;;5066548;28;20178;-76
2022/11/26 11:49:43;;;;;;;34.58;13.10;;;10.00;99.90;;;;;;5074754;28;20194;-76
2022/11/26 11:52:17;;;;;;;33.80;12.65;;;9.90;99.90;;;;;;5072500;28;20185;-75
2022/11/26 11:55:10;;;;;;;36.85;13.20;;;10.00;99.90;;;;;;5068909;28;20175;-75
2022/11/26 11:57:54;;;;;;;34.78;13.38;;;9.90;99.90;;;;;;5074968;28;20194;-76
2022/11/26 12:00:25;;;;;;;29.45;12.65;;;9.90;99.90;;;;;;5075487;28;20249;-75
2022/11/26 12:02:58;;;;;;;34.72;12.65;;;9.90;99.90;;;;;;5073513;28;20173;-74
2022/11/26 12:05:42;;;;;;;32.20;13.25;;;9.90;99.90;;;;;;5071082;28;20214;-75
2022/11/26 12:08:19;;;;;;;36.75;13.27;;;9.90;99.90;;;;;;5065861;28;20243;-76
2022/11/26 12:11:15;;;;;;;35.60;12.50;;;9.90;99.90;;;;;;5073802;28;20201;-76
2022/11/26 12:14:06;;;;;;;39.03;12.25;;;9.90;99.90;;;;;;5054981;28;20190;-76
2022/11/26 12:16:35;;;;;;;30.27;12.93;;;9.90;99.90;;;;;;5060235;28;20198;-75
2022/11/26 12:19:17;;;;;;;34.33;12.55;;;9.90;99.90;;;;;;5064694;28;20190;-76
2022/11/26 12:21:53;;;;;;;36.22;12.45;;;9.90;99.90;;;;;;5055276;28;20163;-76
2022/11/26 12:24:40;;;;;;;39.88;13.23;;;9.80;99.90;;;;;;5060276;28;20175;-77
2022/11/26 12:27:21;;;;;;;36.03;12.05;;;9.90;99.90;;;;;;5072451;28;20261;-77
2022/11/26 12:29:54;;;;;;;30.73;12.63;;;9.90;99.90;;;;;;5069062;28;20181;-78
2022/11/26 12:33:19;;;;;;;33.45;12.57;;;9.90;99.90;;;;;;5073110;28;20178;-76
2022/11/26 12:36:02;;;;;;;40.33;12.73;;;9.90;99.90;;;;;;5006413;28;20185;-77
2022/11/26 12:38:33;;;;;;;32.72;12.95;;;9.90;99.90;;;;;;5007190;28;20287;-77
2022/11/26 12:41:08;;;;;;;30.10;12.75;;;9.90;99.90;;;;;;5031194;28;20199;-81
2022/11/26 12:44:05;;;;;;;33.92;12.93;;;9.90;99.90;;;;;;5083420;28;20235;-78
2022/11/26 12:46:39;;;;;;;31.00;12.93;;;9.90;99.90;;;;;;5072030;28;20178;-79
2022/11/26 12:49:28;;;;;;;31.42;13.32;;;9.90;99.90;;;;;;5069397;28;20216;-79
2022/11/26 12:52:12;;;;;;;32.38;13.30;;;10.00;99.90;;;;;;5080637;28;20288;-83
2022/11/26 12:55:00;;;;;;;31.58;13.38;;;10.00;99.90;;;;;;5082279;28;20637;-80
2022/11/26 12:57:33;;;;;;;33.03;13.77;;;10.00;99.90;;;;;;5072590;28;20198;-79